In Rescue
 
Open Full Screen Window  High Contrast Mode
Wind Gusting 00 knots
05
March 19, 2019 6:21 PM CDT
Weather Information
Wind Direction
  250 °
Wind Speed
  05 kt (6 mph)
Wind Gust
  00 kt (0 mph)
Altimeter
30.13 in
Visibility
7 SM
Temperature
03° C
37° F
Dewpoint
-01° C
30° F
Humidity
75%
1hr Rain Fall
00.00 in.
24hr Rain Fall
00.00 in.
Sky Condition
Clear
VFR

METAR K14Y 192321Z AUTO 25005KT 7SM CLR 03/M01 A3013 RMK AO2

FAA Disclaimer: The data displayed is for advisory purposes only and is not to be used for flight planning or operations.